ALL weather

Villanova D'Albenga International Airport
Albenga (SV), Liguria, Italy

Public forecast

Using degrees Celsius for public forecast. Weather courtesy of forecast.io.

Current aviation weather report (METAR) for Villanova D'Albenga International Airport

Retrieved 2020/06/04 07:50 UTC (24 minutes ago):

LIMG 040750Z 33005KT 280V350 4000 RA BKN010 OVC020 16/16 Q1003

Closest aviation forecast (TAF) to Villanova D'Albenga International Airport

Closest forecast is Cuneo International Airport, 36.8 nm (68.2 km) NW. Retrieved 2020/06/04 06:45 UTC (1 hour ago):

TAF LIMZ 040540Z 0406/0506 VRB04KT 5000 RA BKN040 BKN080 TEMPO 0408/0412 TSRA